Time;durP1;ratioP1;P1;durP2;ratioP2;P2;SDS_P1;SDS_P2;PMS_P1;PMS_P2;Temp;Humidity;BMP_temperature;BMP_pressure;BME280_temperature;BME280_humidity;BME280_pressure;Samples;Min_cycle;Max_cycle;Signal;HPM_P1;HPM_P2
2023/12/24 00:00:10;;;;;;;12.15;4.57;;;;;;;7.58;62.17;98899.47;3133333;28;20057;-68
2023/12/24 00:01:44;;;;;;;6.13;3.33;;;;;;;7.64;62.15;98902.59;3133011;28;20048;-68
2023/12/24 00:03:15;;;;;;;7.05;3.50;;;;;;;7.72;61.97;98889.28;3133348;28;20044;-68
2023/12/24 00:04:49;;;;;;;6.90;3.20;;;;;;;7.79;61.91;98893.25;3133346;28;20056;-68
2023/12/24 00:06:20;;;;;;;8.95;3.85;;;;;;;7.90;61.57;98896.16;3133025;28;20096;-67
2023/12/24 00:07:52;;;;;;;8.48;3.03;;;;;;;8.02;61.25;98896.47;3132311;28;20064;-68
2023/12/24 00:09:24;;;;;;;8.68;2.70;;;;;;;8.09;61.34;98898.69;3133092;28;20060;-68
2023/12/24 00:10:55;;;;;;;6.95;3.25;;;;;;;8.17;61.03;98914.72;3133354;28;20049;-68
2023/12/24 00:12:27;;;;;;;6.82;2.90;;;;;;;8.25;61.01;98914.31;3133125;28;20198;-67
2023/12/24 00:13:58;;;;;;;5.63;2.45;;;;;;;8.33;60.79;98911.34;3133136;28;20049;-68
2023/12/24 00:15:29;;;;;;;8.65;2.85;;;;;;;8.39;60.45;98906.72;3132837;28;20049;-67
2023/12/24 00:17:02;;;;;;;5.40;2.55;;;;;;;8.50;60.32;98907.94;3133199;28;20060;-68
2023/12/24 00:18:33;;;;;;;5.03;2.45;;;;;;;8.57;60.05;98906.69;3133267;28;20060;-67
2023/12/24 00:20:05;;;;;;;6.05;2.05;;;;;;;8.61;60.19;98913.44;3132907;28;20055;-68
2023/12/24 00:21:37;;;;;;;5.07;2.20;;;;;;;8.67;59.75;98918.31;3132730;28;20211;-67
2023/12/24 00:23:09;;;;;;;4.50;2.13;;;;;;;8.77;59.78;98924.69;3133239;28;20514;-67
2023/12/24 00:24:43;;;;;;;7.30;2.90;;;;;;;8.82;59.76;98925.28;3132952;28;20517;-67
2023/12/24 00:26:14;;;;;;;4.88;1.98;;;;;;;8.86;59.46;98918.19;3133041;28;20450;-68
2023/12/24 00:27:46;;;;;;;3.42;2.05;;;;;;;8.96;59.26;98923.72;3133088;28;20049;-68
2023/12/24 00:29:17;;;;;;;7.95;2.92;;;;;;;9.02;59.45;98934.66;3132931;28;20063;-68
2023/12/24 00:30:48;;;;;;;7.53;2.88;;;;;;;9.09;59.00;98933.38;3133120;28;20461;-68
2023/12/24 00:32:20;;;;;;;5.55;1.90;;;;;;;9.18;59.00;98928.63;3132944;28;20372;-69
2023/12/24 00:33:52;;;;;;;6.38;2.17;;;;;;;9.26;58.89;98935.09;3132982;28;20051;-68
2023/12/24 00:35:24;;;;;;;4.00;2.10;;;;;;;9.33;58.95;98944.22;3141933;28;20060;-68
2023/12/24 00:36:56;;;;;;;4.95;1.88;;;;;;;9.39;59.02;98947.44;3133026;28;20436;-68
2023/12/24 00:38:26;;;;;;;4.25;1.95;;;;;;;9.41;58.86;98948.19;3132764;28;20049;-69
2023/12/24 00:39:58;;;;;;;3.60;1.30;;;;;;;9.48;59.10;98946.94;3133265;28;20049;-68
2023/12/24 00:41:30;;;;;;;4.05;1.80;;;;;;;9.51;58.99;98955.38;3132856;28;20052;-69
2023/12/24 00:43:02;;;;;;;3.08;1.77;;;;;;;9.55;59.25;98943.91;3132752;28;20053;-68
2023/12/24 00:44:32;;;;;;;3.60;1.80;;;;;;;9.58;59.09;98932.50;3132703;28;20049;-68
2023/12/24 00:46:05;;;;;;;5.72;2.00;;;;;;;9.62;59.61;98947.00;3132930;28;20552;-68
2023/12/24 00:47:37;;;;;;;7.35;1.90;;;;;;;9.70;59.43;98947.44;3132641;28;20520;-68
2023/12/24 00:49:09;;;;;;;3.70;1.70;;;;;;;9.69;59.60;98937.94;3132653;28;20099;-68
2023/12/24 00:50:39;;;;;;;3.70;2.17;;;;;;;9.74;59.65;98945.50;3132762;28;20057;-68
2023/12/24 00:52:11;;;;;;;4.30;1.70;;;;;;;9.74;59.70;98951.53;3132762;28;20056;-69
2023/12/24 00:53:43;;;;;;;8.25;1.83;;;;;;;9.82;59.47;98942.47;3132753;28;20120;-69
2023/12/24 00:55:14;;;;;;;3.42;2.03;;;;;;;9.86;59.46;98947.41;3132756;28;20514;-69
2023/12/24 00:56:46;;;;;;;5.45;2.05;;;;;;;9.90;59.71;98953.28;3132709;28;20052;-69
2023/12/24 00:58:17;;;;;;;4.20;2.10;;;;;;;9.92;59.60;98951.44;3132449;28;20403;-69
2023/12/24 00:59:49;;;;;;;6.85;2.10;;;;;;;9.91;59.69;98954.94;3132622;28;20135;-69
2023/12/24 01:01:20;;;;;;;5.03;1.48;;;;;;;10.00;59.54;98959.66;3132736;28;20053;-69
2023/12/24 01:02:53;;;;;;;3.70;1.80;;;;;;;10.03;59.45;98975.94;3132978;28;20053;-69
2023/12/24 01:04:24;;;;;;;;;;;;;;;9.64;59.85;98906.16;3132852;28;20057;-69
2023/12/24 01:05:56;;;;;;;7.22;1.60;;;;;;;10.01;59.77;98962.16;3132515;28;19927;-69
2023/12/24 01:07:27;;;;;;;7.53;2.30;;;;;;;10.05;59.49;98956.78;3132421;28;20051;-69
2023/12/24 01:08:58;;;;;;;4.93;2.10;;;;;;;10.07;59.51;98960.16;3132701;28;20133;-68
2023/12/24 01:10:29;;;;;;;4.75;1.80;;;;;;;10.09;59.64;98969.53;3132720;28;20059;-69
2023/12/24 01:12:01;;;;;;;4.95;1.70;;;;;;;10.11;59.34;98965.06;3132135;28;20048;-69
2023/12/24 01:13:32;;;;;;;7.35;1.63;;;;;;;10.17;59.24;98967.31;3132234;28;20045;-69
2023/12/24 01:15:04;;;;;;;5.07;1.63;;;;;;;10.18;59.43;98973.38;3132557;28;20371;-69
2023/12/24 01:16:39;;;;;;;5.88;1.27;;;;;;;10.17;59.08;98967.31;3132566;28;20052;-69
2023/12/24 01:18:12;;;;;;;6.55;1.40;;;;;;;10.19;59.42;98973.28;3132443;28;20091;-68
2023/12/24 01:19:43;;;;;;;7.90;1.75;;;;;;;9.49;59.27;98855.88;3131754;28;20045;-69
2023/12/24 01:21:15;;;;;;;4.35;1.70;;;;;;;10.25;58.91;98965.13;3132284;28;20422;-69
2023/12/24 01:22:46;;;;;;;3.25;1.50;;;;;;;10.31;59.11;98957.94;3132145;28;20048;-69
2023/12/24 01:24:18;;;;;;;5.75;1.45;;;;;;;10.32;59.07;98957.00;3128486;28;20045;-69
2023/12/24 01:25:48;;;;;;;5.22;1.65;;;;;;;10.35;58.99;98956.81;3130748;28;20118;-68
2023/12/24 01:27:20;;;;;;;4.35;1.58;;;;;;;10.39;58.72;98956.56;3132501;28;20537;-69
2023/12/24 01:28:51;;;;;;;5.95;1.70;;;;;;;10.44;58.26;98959.75;3132148;28;20044;-69
2023/12/24 01:30:23;;;;;;;6.20;1.63;;;;;;;10.46;58.52;98963.09;3139245;28;20048;-69
2023/12/24 01:31:53;;;;;;;5.57;1.75;;;;;;;10.49;58.06;98962.06;3132324;28;20497;-69
2023/12/24 01:33:26;;;;;;;5.20;1.23;;;;;;;10.54;58.04;98965.25;3132509;28;20049;-69
2023/12/24 01:34:58;;;;;;;9.18;1.73;;;;;;;10.56;58.16;98952.13;3132388;28;20398;-69
2023/12/24 01:36:30;;;;;;;7.35;1.63;;;;;;;10.60;57.90;98957.09;3132299;28;20053;-69
2023/12/24 01:38:00;;;;;;;4.85;1.60;;;;;;;10.62;57.81;98946.59;3132365;28;20041;-69
2023/12/24 01:39:32;;;;;;;3.92;1.42;;;;;;;10.64;57.62;98944.72;3132375;28;20097;-69
2023/12/24 01:41:03;;;;;;;5.88;1.67;;;;;;;10.65;57.62;98946.41;3132230;28;20044;-69
2023/12/24 01:42:35;;;;;;;4.25;1.23;;;;;;;10.68;57.37;98951.44;3132640;28;20588;-69
2023/12/24 01:44:06;;;;;;;7.50;2.30;;;;;;;10.72;57.32;98949.47;3132367;28;20041;-69
2023/12/24 01:45:37;;;;;;;3.70;2.03;;;;;;;10.72;57.18;98949.47;3132164;28;20510;-68
2023/12/24 01:47:09;;;;;;;4.32;1.30;;;;;;;10.74;57.21;98942.41;3132330;28;20049;-69
2023/12/24 01:48:42;;;;;;;6.13;1.80;;;;;;;10.75;57.35;98946.69;3132402;28;20045;-69
2023/12/24 01:50:13;;;;;;;5.75;1.85;;;;;;;10.76;57.34;98953.56;3132090;28;20045;-68
2023/12/24 01:51:44;;;;;;;2.83;1.70;;;;;;;10.76;56.96;98945.75;3132486;28;20528;-69
2023/12/24 01:53:17;;;;;;;4.57;1.50;;;;;;;10.82;56.50;98955.81;3132460;28;20049;-69
2023/12/24 01:54:51;;;;;;;4.03;1.67;;;;;;;10.79;56.64;98956.00;3132462;28;20049;-69
2023/12/24 01:56:23;;;;;;;4.00;1.63;;;;;;;10.81;56.74;98956.75;3132452;28;20497;-69
2023/12/24 01:57:56;;;;;;;7.50;1.35;;;;;;;10.81;56.52;98956.75;3132114;28;20427;-69
2023/12/24 01:59:28;;;;;;;4.68;1.60;;;;;;;10.82;56.84;98959.25;3132188;28;20049;-69
2023/12/24 02:01:00;;;;;;;5.35;1.50;;;;;;;10.83;56.65;98953.13;3132743;28;20049;-69
2023/12/24 02:02:31;;;;;;;6.72;2.13;;;;;;;10.85;56.34;98968.66;3131047;28;20048;-69
2023/12/24 02:04:05;;;;;;;4.00;1.63;;;;;;;10.87;56.51;98956.38;3132338;28;20049;-69
2023/12/24 02:05:36;;;;;;;1.98;1.05;;;;;;;10.87;56.39;98951.16;3132294;28;20049;-69
2023/12/24 02:07:10;;;;;;;5.03;1.80;;;;;;;10.90;56.14;98962.22;3131974;28;20871;-69
2023/12/24 02:08:41;;;;;;;4.82;1.60;;;;;;;10.93;55.98;98961.22;3132194;28;20049;-69
2023/12/24 02:10:13;;;;;;;5.93;1.52;;;;;;;10.96;55.99;98968.00;3132437;28;20573;-69
2023/12/24 02:11:45;;;;;;;2.50;1.20;;;;;;;11.02;55.86;98971.09;3132443;28;20053;-68
2023/12/24 02:13:16;;;;;;;4.93;1.65;;;;;;;11.05;55.34;98963.06;3132127;28;20532;-69
2023/12/24 02:14:48;;;;;;;4.82;1.70;;;;;;;11.05;55.49;98955.25;3132451;28;20045;-68
2023/12/24 02:16:22;;;;;;;3.80;1.63;;;;;;;11.09;54.93;98969.81;3132125;28;20049;-68
2023/12/24 02:17:53;;;;;;;3.88;1.30;;;;;;;11.09;55.38;98964.59;3132318;28;20543;-68
2023/12/24 02:19:27;;;;;;;6.00;1.30;;;;;;;11.13;54.84;98975.66;3132246;28;20044;-68
2023/12/24 02:21:02;;;;;;;3.38;1.75;;;;;;;11.15;54.69;98973.78;3131897;28;20041;-68
2023/12/24 02:22:34;;;;;;;3.80;1.30;;;;;;;11.13;54.89;98984.31;3132171;28;20481;-68
2023/12/24 02:24:06;;;;;;;5.28;1.50;;;;;;;11.16;54.56;98985.91;3132229;28;20048;-68
2023/12/24 02:25:38;;;;;;;7.97;1.63;;;;;;;11.14;54.76;98985.97;3132012;28;20061;-68
2023/12/24 02:27:18;;;;;;;4.20;1.17;;;;;;;11.18;54.60;98991.84;3135721;28;20147;-68
2023/12/24 02:28:52;;;;;;;4.35;1.35;;;;;;;11.18;54.49;99001.41;3132078;28;20068;-68
2023/12/24 02:30:29;;;;;;;3.97;1.55;;;;;;;10.86;54.37;98942.53;3132355;28;20442;-69
2023/12/24 02:32:06;;;;;;;5.63;1.48;;;;;;;11.20;54.62;99002.19;3134357;28;20494;-69
2023/12/24 02:33:40;;;;;;;6.70;1.60;;;;;;;11.20;54.69;99010.00;3134475;28;20055;-68
2023/12/24 02:35:13;;;;;;;2.53;1.20;;;;;;;11.19;54.62;99016.16;3134506;28;20052;-68
2023/12/24 02:36:49;;;;;;;3.08;1.25;;;;;;;11.19;54.41;99016.16;3134564;28;20049;-68
2023/12/24 02:38:19;;;;;;;6.95;1.60;;;;;;;11.18;54.31;99025.75;3134655;28;20078;-68
2023/12/24 02:39:51;;;;;;;5.78;1.48;;;;;;;10.86;54.12;98981.59;3134847;28;20049;-68
2023/12/24 02:41:22;;;;;;;5.35;1.48;;;;;;;11.18;54.34;99025.75;3125389;28;20102;-69
2023/12/24 02:42:54;;;;;;;4.75;1.13;;;;;;;11.19;54.40;99039.59;3134258;28;20107;-69
2023/12/24 02:44:25;;;;;;;5.65;1.40;;;;;;;11.20;54.15;99036.06;3134157;28;20060;-69
2023/12/24 02:45:59;;;;;;;2.88;1.40;;;;;;;11.20;54.14;99036.06;3134371;28;20532;-68
2023/12/24 02:47:29;;;;;;;5.13;1.35;;;;;;;11.20;54.04;99043.88;3134661;28;20140;-68
2023/12/24 02:49:01;;;;;;;4.88;1.23;;;;;;;11.19;53.91;99040.44;3134480;28;20045;-68
2023/12/24 02:50:32;;;;;;;4.47;1.30;;;;;;;11.20;53.88;99041.25;3134181;28;20053;-67
2023/12/24 02:52:06;;;;;;;4.40;1.48;;;;;;;11.20;53.99;99039.50;3134371;28;20045;-67
2023/12/24 02:53:36;;;;;;;4.75;1.60;;;;;;;11.17;53.85;99044.88;3134187;28;20506;-68
2023/12/24 02:55:08;;;;;;;4.35;1.27;;;;;;;11.18;54.18;99045.72;3133945;28;20060;-67
2023/12/24 02:56:39;;;;;;;3.72;1.42;;;;;;;11.17;53.63;99052.72;3134210;28;20390;-67
2023/12/24 02:58:12;;;;;;;3.83;1.50;;;;;;;11.11;53.52;99043.47;3133968;28;20045;-67
2023/12/24 02:59:44;;;;;;;3.35;1.27;;;;;;;11.14;53.41;99048.50;3134135;28;20053;-67
2023/12/24 03:01:14;;;;;;;3.95;1.20;;;;;;;11.18;53.31;99053.53;3133884;28;20129;-67
2023/12/24 03:02:47;;;;;;;5.85;1.15;;;;;;;11.19;52.94;99060.44;3134059;28;20356;-68
2023/12/24 03:04:17;;;;;;;5.82;1.23;;;;;;;11.15;52.63;99065.84;3133748;28;20441;-67
2023/12/24 03:05:49;;;;;;;3.55;1.35;;;;;;;11.16;52.45;99062.28;3134145;28;20053;-68
2023/12/24 03:07:21;;;;;;;4.32;1.58;;;;;;;11.22;52.08;99058.50;3133951;28;20056;-68
2023/12/24 03:08:53;;;;;;;4.35;1.33;;;;;;;11.21;52.29;99067.25;3134128;28;20478;-67
2023/12/24 03:10:24;;;;;;;2.28;1.08;;;;;;;11.20;51.78;99068.16;3134069;28;20466;-68
2023/12/24 03:11:55;;;;;;;3.70;1.30;;;;;;;11.20;51.63;99073.38;3134160;28;20056;-67
2023/12/24 03:13:26;;;;;;;4.25;1.15;;;;;;;11.20;51.80;99075.16;3133711;28;20437;-67
2023/12/24 03:14:58;;;;;;;3.20;1.20;;;;;;;11.20;51.89;99082.97;3134174;28;20052;-69
2023/12/24 03:16:29;;;;;;;1.90;1.30;;;;;;;11.22;51.53;99070.69;3134076;28;20565;-69
2023/12/24 03:18:01;;;;;;;4.10;1.27;;;;;;;11.20;51.53;99081.19;3133918;28;20048;-68
2023/12/24 03:19:33;;;;;;;3.42;1.30;;;;;;;11.18;51.22;99088.28;3133926;28;20506;-68
2023/12/24 03:21:04;;;;;;;4.03;1.30;;;;;;;11.17;51.47;99078.75;3133941;28;20055;-68
2023/12/24 03:22:37;;;;;;;3.03;0.98;;;;;;;11.18;51.42;99090.88;3134095;28;20041;-68
2023/12/24 03:24:09;;;;;;;3.05;0.95;;;;;;;11.17;51.24;99094.41;3142805;28;20060;-68
2023/12/24 03:25:41;;;;;;;2.25;1.02;;;;;;;11.15;50.97;99097.13;3133781;28;20139;-68
2023/12/24 03:27:12;;;;;;;4.60;1.20;;;;;;;11.13;51.04;99098.97;3133591;28;20056;-69
2023/12/24 03:28:43;;;;;;;4.38;1.55;;;;;;;11.08;51.18;99095.78;3133784;28;20529;-69
2023/12/24 03:30:14;;;;;;;6.38;1.38;;;;;;;11.13;50.66;99108.56;3133933;28;20454;-69
2023/12/24 03:31:46;;;;;;;3.35;1.30;;;;;;;11.12;50.57;99115.53;3121733;28;20061;-69
2023/12/24 03:33:17;;;;;;;2.42;1.02;;;;;;;11.12;50.69;99114.66;3133343;28;20049;-69
2023/12/24 03:34:49;;;;;;;4.72;1.02;;;;;;;11.13;50.56;99109.38;3133982;28;20056;-69
2023/12/24 03:36:21;;;;;;;4.38;1.38;;;;;;;11.14;50.10;99121.47;3133542;28;20064;-69
2023/12/24 03:37:53;;;;;;;3.15;1.10;;;;;;;11.18;50.01;99119.56;3133796;28;20056;-69
2023/12/24 03:39:24;;;;;;;2.58;1.20;;;;;;;11.18;49.98;99121.28;3133757;28;20048;-69
2023/12/24 03:40:55;;;;;;;3.53;1.45;;;;;;;11.13;50.12;99119.81;3133458;28;20517;-68
2023/12/24 03:42:27;;;;;;;5.35;1.23;;;;;;;11.13;49.79;99116.38;3133459;28;20064;-68
2023/12/24 03:43:58;;;;;;;3.22;1.08;;;;;;;11.14;49.55;99125.84;3133044;28;20053;-68
2023/12/24 03:45:32;;;;;;;3.70;1.17;;;;;;;11.11;49.35;99126.88;3133917;28;20049;-68
2023/12/24 03:47:02;;;;;;;1.20;0.90;;;;;;;11.12;49.46;99133.78;3133662;28;20052;-68
2023/12/24 03:48:37;;;;;;;2.67;1.40;;;;;;;11.11;49.24;99132.06;3133562;28;20183;-67
2023/12/24 03:50:08;;;;;;;3.05;0.93;;;;;;;11.10;49.10;99133.03;3133506;28;20053;-68
2023/12/24 03:51:40;;;;;;;3.22;0.88;;;;;;;11.08;49.49;99131.44;3133674;28;21669;-68
2023/12/24 03:53:12;;;;;;;2.22;0.93;;;;;;;11.06;49.06;99131.53;3133366;28;20688;-68
2023/12/24 03:54:44;;;;;;;3.95;0.90;;;;;;;11.06;49.04;99128.06;3133572;28;20056;-68
2023/12/24 03:56:14;;;;;;;3.15;1.20;;;;;;;11.05;49.24;99137.66;3133294;28;20052;-68
2023/12/24 03:57:46;;;;;;;3.15;1.15;;;;;;;11.03;49.38;99129.09;3133774;28;20533;-68
2023/12/24 03:59:17;;;;;;;2.95;1.13;;;;;;;10.99;49.10;99138.00;3133820;28;20615;-69
2023/12/24 04:00:49;;;;;;;2.05;0.80;;;;;;;11.01;48.94;99137.94;3133520;28;20080;-69
2023/12/24 04:02:24;;;;;;;3.00;0.93;;;;;;;10.96;49.38;99145.16;3133600;28;20445;-68
2023/12/24 04:03:56;;;;;;;1.80;0.70;;;;;;;10.92;49.13;99137.53;3133575;28;20202;-68
2023/12/24 04:05:26;;;;;;;1.63;0.70;;;;;;;10.90;49.42;99130.72;3133446;28;20511;-68
2023/12/24 04:07:00;;;;;;;2.33;1.15;;;;;;;10.93;48.95;99143.56;3133106;28;20052;-68
2023/12/24 04:08:32;;;;;;;;;;;;;;;10.74;49.34;99143.78;3133993;28;20158;-68
2023/12/24 04:10:04;;;;;;;2.15;0.90;;;;;;;10.44;49.13;99091.63;3133518;28;19921;-68
2023/12/24 04:11:35;;;;;;;4.63;1.00;;;;;;;10.84;48.83;99151.91;3133459;28;20053;-68
2023/12/24 04:13:07;;;;;;;3.60;0.90;;;;;;;10.82;48.88;99162.41;3133345;28;20106;-68
2023/12/24 04:14:37;;;;;;;3.72;1.02;;;;;;;10.83;48.97;99160.66;3133475;28;20066;-68
2023/12/24 04:16:10;;;;;;;5.45;1.05;;;;;;;10.82;48.83;99158.97;3133402;28;20056;-68
2023/12/24 04:17:41;;;;;;;2.40;0.70;;;;;;;10.82;48.94;99157.19;3133242;28;20045;-68
2023/12/24 04:19:12;;;;;;;1.65;0.93;;;;;;;10.82;49.10;99157.19;3135304;28;20045;-68
2023/12/24 04:20:43;;;;;;;1.67;0.80;;;;;;;10.81;48.87;99157.28;3143314;28;20524;-68
2023/12/24 04:22:15;;;;;;;1.33;0.70;;;;;;;10.82;48.56;99158.97;3133202;28;20052;-69
2023/12/24 04:23:47;;;;;;;1.75;0.70;;;;;;;10.83;48.75;99155.44;3133329;28;20529;-69
2023/12/24 04:25:19;;;;;;;1.40;0.50;;;;;;;10.84;48.73;99170.97;3133394;28;20053;-69
2023/12/24 04:26:50;;;;;;;2.45;0.90;;;;;;;10.82;48.54;99167.59;3133699;28;20414;-69
2023/12/24 04:28:22;;;;;;;2.45;0.80;;;;;;;10.81;48.61;99170.31;3133181;28;20060;-69
2023/12/24 04:29:53;;;;;;;3.05;0.80;;;;;;;10.50;48.67;99119.09;3133174;28;20414;-68
2023/12/24 04:31:25;;;;;;;3.28;0.95;;;;;;;10.79;48.89;99167.78;3133394;28;20055;-68
2023/12/24 04:32:55;;;;;;;2.90;1.00;;;;;;;10.79;48.88;99177.38;3133345;28;20045;-68
2023/12/24 04:34:27;;;;;;;1.02;0.50;;;;;;;10.78;48.91;99186.13;3133172;28;20385;-68
2023/12/24 04:35:58;;;;;;;1.15;0.45;;;;;;;10.76;49.00;99188.78;3133128;28;20428;-68
2023/12/24 04:37:30;;;;;;;2.03;0.82;;;;;;;10.73;48.84;99190.72;3133332;28;20435;-69
2023/12/24 04:39:02;;;;;;;3.70;0.77;;;;;;;10.77;48.71;99187.06;3132902;28;20048;-69
2023/12/24 04:40:34;;;;;;;1.92;0.80;;;;;;;10.73;48.93;99196.78;3133312;28;20056;-69
2023/12/24 04:42:05;;;;;;;3.10;1.00;;;;;;;10.76;48.58;99198.38;3133131;28;20056;-70
2023/12/24 04:43:38;;;;;;;1.27;0.60;;;;;;;10.77;48.77;99200.06;3132818;28;20379;-70
2023/12/24 04:45:09;;;;;;;1.73;0.65;;;;;;;10.78;48.81;99199.97;3133159;28;20068;-69
2023/12/24 04:46:42;;;;;;;1.50;0.70;;;;;;;10.78;48.32;99201.75;3133058;28;20057;-69
2023/12/24 04:48:13;;;;;;;;;;;;;;;10.67;48.88;99215.34;3133403;28;20629;-66
2023/12/24 04:49:45;;;;;;;2.83;0.57;;;;;;;10.74;48.49;99218.44;3133162;28;19931;-68
2023/12/24 04:51:15;;;;;;;2.55;0.80;;;;;;;10.75;48.74;99213.16;3132458;28;20121;-68
2023/12/24 04:52:47;;;;;;;1.33;0.63;;;;;;;10.79;48.58;99224.25;3132905;28;20055;-67
2023/12/24 04:54:19;;;;;;;1.75;0.90;;;;;;;10.84;48.32;99220.47;3132840;28;20558;-68
2023/12/24 04:55:51;;;;;;;1.75;0.60;;;;;;;10.88;47.99;99221.13;3128984;28;20071;-69
2023/12/24 04:57:22;;;;;;;1.92;0.60;;;;;;;10.87;48.11;99217.69;3132684;28;20056;-69
2023/12/24 04:58:54;;;;;;;1.27;0.75;;;;;;;10.91;48.35;99218.34;3132741;28;20117;-68
2023/12/24 05:00:25;;;;;;;1.02;0.50;;;;;;;10.95;48.21;99222.47;3132941;28;20517;-69
2023/12/24 05:01:57;;;;;;;3.25;0.55;;;;;;;10.83;48.00;99205.78;3132580;28;20044;-69
2023/12/24 05:03:29;;;;;;;1.63;0.60;;;;;;;10.97;47.83;99232.81;3132983;28;20049;-69
2023/12/24 05:05:03;;;;;;;3.40;0.80;;;;;;;10.57;47.73;99162.94;3132853;28;20059;-69
2023/12/24 05:06:35;;;;;;;2.38;0.88;;;;;;;11.01;47.58;99229.13;3132742;28;20086;-69
2023/12/24 05:08:06;;;;;;;1.23;0.70;;;;;;;11.00;47.55;99233.47;3132523;28;20134;-69
2023/12/24 05:09:42;;;;;;;1.42;0.57;;;;;;;11.03;47.96;99232.47;3133059;28;20131;-68
2023/12/24 05:11:13;;;;;;;0.85;0.50;;;;;;;10.72;47.97;99195.09;3132869;28;20551;-68
2023/12/24 05:12:44;;;;;;;1.23;0.60;;;;;;;11.04;47.64;99242.81;3132663;28;20133;-69
2023/12/24 05:14:16;;;;;;;1.42;0.52;;;;;;;11.06;47.53;99243.56;3132446;28;20049;-68
2023/12/24 05:15:47;;;;;;;3.95;0.90;;;;;;;11.08;47.48;99259.94;3136015;28;20044;-68
2023/12/24 05:17:18;;;;;;;3.92;1.17;;;;;;;10.50;47.85;99156.41;3132902;28;20640;-68
2023/12/24 05:18:50;;;;;;;1.88;0.80;;;;;;;11.10;47.69;99254.66;3138172;28;20061;-69
2023/12/24 05:20:21;;;;;;;2.88;1.02;;;;;;;11.08;47.70;99270.38;3132677;28;20044;-68
2023/12/24 05:21:52;;;;;;;2.42;0.70;;;;;;;11.07;47.50;99276.50;3132444;28;20056;-68
2023/12/24 05:23:25;;;;;;;2.42;0.70;;;;;;;11.09;47.64;99266.84;3132476;28;20056;-68
2023/12/24 05:24:58;;;;;;;1.98;1.05;;;;;;;11.10;47.84;99271.13;3132711;28;20071;-68
2023/12/24 05:26:28;;;;;;;1.50;0.63;;;;;;;11.08;47.54;99269.53;3132587;28;20708;-68
2023/12/24 05:28:00;;;;;;;2.35;0.80;;;;;;;11.06;47.55;99269.63;3132184;28;20053;-67
2023/12/24 05:29:31;;;;;;;1.80;0.80;;;;;;;11.08;47.57;99274.75;3132660;28;20482;-68
2023/12/24 05:31:03;;;;;;;3.28;0.60;;;;;;;11.06;47.57;99280.06;3132454;28;20097;-68
2023/12/24 05:32:34;;;;;;;1.58;0.80;;;;;;;10.71;47.89;99235.09;3132495;28;20055;-69
2023/12/24 05:34:05;;;;;;;4.38;0.90;;;;;;;11.06;47.66;99280.06;3132602;28;20441;-68
2023/12/24 05:35:36;;;;;;;1.90;0.60;;;;;;;11.04;47.58;99284.50;3132552;28;20045;-68
2023/12/24 05:37:08;;;;;;;3.85;1.00;;;;;;;11.02;48.03;99296.75;3132361;28;20049;-69
2023/12/24 05:38:39;;;;;;;1.95;1.00;;;;;;;11.03;47.77;99288.03;3132392;28;20049;-68
2023/12/24 05:40:12;;;;;;;2.67;1.02;;;;;;;11.02;48.02;99285.50;3132415;28;20182;-68
2023/12/24 05:41:43;;;;;;;;;;;;;;;10.87;47.93;99292.41;3133010;28;20053;-68
2023/12/24 05:43:15;;;;;;;1.95;0.80;;;;;;;10.92;48.03;99303.41;3131944;28;19925;-69
2023/12/24 05:44:46;;;;;;;1.42;0.80;;;;;;;10.93;48.16;99305.91;3132517;28;20437;-69
2023/12/24 05:46:18;;;;;;;1.90;0.70;;;;;;;10.93;47.92;99303.31;3132417;28;20052;-68
2023/12/24 05:47:49;;;;;;;1.77;0.88;;;;;;;10.93;48.13;99310.28;3132598;28;20045;-69
2023/12/24 05:49:21;;;;;;;1.90;0.90;;;;;;;10.92;48.41;99319.03;3132601;28;20049;-69
2023/12/24 05:50:51;;;;;;;1.85;1.05;;;;;;;10.90;48.09;99313.06;3131892;28;20497;-68
2023/12/24 05:52:23;;;;;;;4.15;1.33;;;;;;;10.90;48.15;99326.09;3132123;28;20044;-69
2023/12/24 05:53:54;;;;;;;2.72;1.00;;;;;;;10.87;48.34;99327.09;3132462;28;20065;-69
2023/12/24 05:55:28;;;;;;;2.83;1.08;;;;;;;10.87;48.19;99328.84;3132179;28;20045;-69
2023/12/24 05:56:58;;;;;;;2.47;1.00;;;;;;;10.86;48.49;99335.00;3132512;28;20438;-69
2023/12/24 05:58:30;;;;;;;2.72;1.30;;;;;;;10.86;48.56;99335.00;3132235;28;20088;-69
2023/12/24 06:00:01;;;;;;;2.30;0.82;;;;;;;10.78;48.58;99316.34;3131889;28;20471;-68
2023/12/24 06:01:33;;;;;;;2.53;1.00;;;;;;;10.87;48.57;99344.50;3132300;28;20064;-69
2023/12/24 06:03:04;;;;;;;3.17;1.00;;;;;;;10.85;48.63;99344.56;3132320;28;20053;-69
2023/12/24 06:04:35;;;;;;;1.80;1.00;;;;;;;10.85;48.75;99341.94;3132019;28;20494;-69
2023/12/24 06:06:06;;;;;;;3.10;0.95;;;;;;;10.86;48.54;99343.66;3131523;28;20060;-68
2023/12/24 06:07:38;;;;;;;1.88;0.90;;;;;;;10.86;48.62;99350.63;3132044;28;20057;-69
2023/12/24 06:09:09;;;;;;;2.22;1.08;;;;;;;10.87;48.68;99357.50;3132149;28;20049;-69
2023/12/24 06:10:42;;;;;;;1.73;0.85;;;;;;;10.86;48.56;99353.25;3132495;28;20084;-69
2023/12/24 06:12:13;;;;;;;1.95;0.80;;;;;;;10.83;48.62;99359.44;3138470;28;20051;-69
2023/12/24 06:13:44;;;;;;;2.40;1.05;;;;;;;10.84;49.09;99347.25;3132690;28;20049;-69
2023/12/24 06:15:15;;;;;;;2.88;0.90;;;;;;;10.83;48.72;99358.63;3132067;28;20057;-69
2023/12/24 06:16:47;;;;;;;2.88;1.10;;;;;;;10.85;48.76;99361.97;3132081;28;20544;-69
2023/12/24 06:18:18;;;;;;;4.25;1.05;;;;;;;10.84;49.15;99358.50;3132137;28;20529;-68
2023/12/24 06:19:50;;;;;;;2.17;1.23;;;;;;;10.86;49.03;99361.06;3132328;28;20040;-69
2023/12/24 06:21:20;;;;;;;2.20;0.85;;;;;;;10.87;49.30;99367.94;3131890;28;20408;-69
2023/12/24 06:22:52;;;;;;;3.25;1.02;;;;;;;10.88;48.94;99364.41;3132015;28;20048;-69
2023/12/24 06:24:24;;;;;;;3.05;1.10;;;;;;;10.90;49.13;99366.00;3132184;28;20060;-69
2023/12/24 06:25:58;;;;;;;2.67;0.93;;;;;;;10.92;49.11;99371.16;3132271;28;20048;-69
2023/12/24 06:27:28;;;;;;;3.08;1.27;;;;;;;10.92;48.98;99368.53;3132140;28;20383;-69
2023/12/24 06:29:00;;;;;;;2.45;1.17;;;;;;;10.94;49.18;99364.06;3132030;28;20056;-68
2023/12/24 06:30:31;;;;;;;5.78;1.10;;;;;;;10.97;48.93;99358.69;3132024;28;20409;-68
2023/12/24 06:32:03;;;;;;;4.82;1.40;;;;;;;10.98;49.12;99355.19;3132371;28;20045;-69
2023/12/24 06:33:34;;;;;;;2.53;1.13;;;;;;;11.00;49.13;99353.31;3131987;28;20049;-68
2023/12/24 06:35:05;;;;;;;2.55;1.52;;;;;;;11.03;49.22;99358.38;3131977;28;20378;-67
2023/12/24 06:36:36;;;;;;;3.40;1.80;;;;;;;11.10;48.87;99361.50;3132235;28;20053;-68
2023/12/24 06:38:08;;;;;;;3.67;1.40;;;;;;;11.14;49.11;99365.59;3132244;28;20068;-68
2023/12/24 06:39:39;;;;;;;3.38;1.23;;;;;;;11.21;49.10;99355.69;3131762;28;20514;-68
2023/12/24 06:41:12;;;;;;;4.63;1.33;;;;;;;11.28;48.93;99354.44;3132071;28;20080;-68
2023/12/24 06:42:43;;;;;;;3.00;1.48;;;;;;;11.30;48.76;99355.19;3132014;28;20060;-69
2023/12/24 06:44:15;;;;;;;2.55;1.15;;;;;;;11.33;48.68;99355.88;3131877;28;20513;-68
2023/12/24 06:45:45;;;;;;;2.78;1.35;;;;;;;11.38;48.81;99361.63;3132223;28;20045;-69
2023/12/24 06:47:17;;;;;;;3.05;1.50;;;;;;;11.47;48.87;99355.06;3132133;28;20056;-67
2023/12/24 06:48:48;;;;;;;4.68;1.40;;;;;;;11.53;48.22;99356.50;3131949;28;20041;-68
2023/12/24 06:50:22;;;;;;;3.53;1.27;;;;;;;11.61;48.17;99359.53;3132178;28;20056;-69
2023/12/24 06:51:52;;;;;;;2.72;1.40;;;;;;;11.69;48.40;99359.09;3132111;28;20429;-68
2023/12/24 06:53:24;;;;;;;2.58;1.42;;;;;;;11.74;48.09;99362.28;3132082;28;20066;-69
2023/12/24 06:54:55;;;;;;;2.35;1.30;;;;;;;11.82;48.15;99370.50;3132162;28;20437;-69
2023/12/24 06:56:28;;;;;;;2.65;1.30;;;;;;;11.89;47.73;99361.44;3132199;28;20053;-69
2023/12/24 06:57:59;;;;;;;4.05;1.15;;;;;;;11.95;47.77;99358.50;3131810;28;20057;-69
2023/12/24 06:59:31;;;;;;;1.92;1.40;;;;;;;12.01;47.82;99365.97;3131942;28;20550;-69
2023/12/24 07:01:02;;;;;;;6.53;1.42;;;;;;;12.11;47.57;99368.88;3131976;28;20056;-69
2023/12/24 07:02:34;;;;;;;2.60;1.15;;;;;;;12.18;47.52;99375.41;3131942;28;20045;-69
2023/12/24 07:04:05;;;;;;;3.28;1.50;;;;;;;12.22;47.11;99366.47;3131873;28;20049;-69
2023/12/24 07:05:38;;;;;;;4.28;1.40;;;;;;;12.28;46.93;99375.72;3131907;28;20045;-69
2023/12/24 07:07:09;;;;;;;2.80;1.48;;;;;;;12.33;46.98;99380.66;3131837;28;20523;-69
2023/12/24 07:08:41;;;;;;;3.17;1.40;;;;;;;12.35;46.89;99376.19;3139908;28;20059;-69
2023/12/24 07:10:12;;;;;;;3.75;1.40;;;;;;;12.43;46.63;99390.47;3135458;28;20132;-69
2023/12/24 07:11:45;;;;;;;5.15;1.92;;;;;;;12.49;46.83;99397.09;3131854;28;20049;-69
2023/12/24 07:13:16;;;;;;;2.10;1.60;;;;;;;12.49;46.81;99395.31;3131686;28;20532;-69